createdAt,value
2019-03-11T00:00:16.563Z,4.58
2019-03-11T00:01:16.539Z,4.47
2019-03-11T00:02:16.540Z,4.50
2019-03-11T00:03:16.517Z,4.45
2019-03-11T00:04:17.395Z,4.52
2019-03-11T00:05:16.488Z,4.50
2019-03-11T00:06:16.526Z,4.58
2019-03-11T00:07:16.467Z,4.51
2019-03-11T00:08:16.454Z,4.48
2019-03-11T00:09:16.446Z,4.50
2019-03-11T00:10:16.446Z,4.48
2019-03-11T00:11:16.442Z,4.51
2019-03-11T00:12:16.414Z,4.52
2019-03-11T00:13:16.410Z,4.50
2019-03-11T00:14:16.390Z,4.50
2019-03-11T00:15:16.386Z,4.41
2019-03-11T00:16:16.388Z,4.40
2019-03-11T00:17:16.364Z,4.52
2019-03-11T00:18:16.349Z,4.52
2019-03-11T00:19:16.336Z,4.42
2019-03-11T00:20:16.327Z,4.37
2019-03-11T00:21:16.339Z,4.40
2019-03-11T00:22:16.304Z,4.45
2019-03-11T00:23:16.300Z,4.45
2019-03-11T00:24:16.279Z,4.41
2019-03-11T00:25:16.272Z,4.36
2019-03-11T00:26:16.261Z,4.45
2019-03-11T00:27:16.271Z,4.44
2019-03-11T00:28:16.239Z,4.42
2019-03-11T00:29:16.231Z,4.41
2019-03-11T00:30:16.223Z,4.34
2019-03-11T00:31:16.220Z,4.44
2019-03-11T00:32:16.210Z,4.40
2019-03-11T00:33:16.195Z,4.41
2019-03-11T00:34:16.174Z,4.41
2019-03-11T00:35:16.161Z,4.45
2019-03-11T00:36:16.164Z,4.44
2019-03-11T00:37:16.159Z,4.47
2019-03-11T00:38:16.133Z,4.40
2019-03-11T00:39:16.124Z,4.41
2019-03-11T00:40:16.109Z,4.40
2019-03-11T00:41:16.105Z,4.42
2019-03-11T00:42:16.108Z,4.36
2019-03-11T00:43:16.075Z,4.42
2019-03-11T00:44:16.066Z,4.42
2019-03-11T00:45:16.061Z,4.36
2019-03-11T00:46:16.042Z,4.33
2019-03-11T00:47:16.075Z,4.29
2019-03-11T00:48:16.025Z,4.37
2019-03-11T00:49:16.005Z,4.36
2019-03-11T00:50:15.995Z,4.47
2019-03-11T00:51:15.982Z,4.42
2019-03-11T00:52:15.990Z,4.34
2019-03-11T00:53:15.971Z,4.32
2019-03-11T00:54:15.957Z,4.32
2019-03-11T00:55:15.939Z,4.30
2019-03-11T00:56:15.931Z,4.27
2019-03-11T00:57:15.931Z,4.30
2019-03-11T00:58:15.929Z,4.26
2019-03-11T00:59:15.898Z,4.23
2019-03-11T01:00:15.889Z,4.14
2019-03-11T01:01:15.874Z,4.15
2019-03-11T01:02:15.865Z,4.14
2019-03-11T01:03:15.871Z,4.18
2019-03-11T01:04:15.846Z,4.22
2019-03-11T01:05:15.835Z,4.12
2019-03-11T01:06:15.842Z,4.24
2019-03-11T01:07:15.810Z,4.08
2019-03-11T01:08:15.816Z,4.11
2019-03-11T01:09:15.791Z,4.11
2019-03-11T01:10:15.777Z,4.15
2019-03-11T01:11:15.774Z,4.18
2019-03-11T01:12:15.762Z,4.24
2019-03-11T01:13:15.772Z,4.29
2019-03-11T01:14:15.734Z,4.33
2019-03-11T01:15:15.724Z,4.29
2019-03-11T01:16:15.712Z,4.36
2019-03-11T01:17:15.703Z,4.32
2019-03-11T01:18:15.711Z,4.26
2019-03-11T01:19:15.680Z,4.29
2019-03-11T01:20:15.678Z,4.29
2019-03-11T01:21:15.656Z,4.33
2019-03-11T01:22:15.649Z,4.42
2019-03-11T01:23:15.663Z,4.37
2019-03-11T01:24:15.627Z,4.37
2019-03-11T01:25:15.610Z,4.44
2019-03-11T01:26:15.601Z,4.44
2019-03-11T01:27:15.590Z,4.48
2019-03-11T01:28:15.579Z,4.36
2019-03-11T01:29:15.584Z,4.54
2019-03-11T01:30:15.566Z,4.50
2019-03-11T01:31:15.544Z,4.44
2019-03-11T01:32:15.539Z,4.54
2019-03-11T01:33:15.531Z,4.48
2019-03-11T01:34:15.536Z,4.50
2019-03-11T01:35:15.504Z,4.54
2019-03-11T01:36:15.501Z,4.50
2019-03-11T01:37:15.484Z,4.47
2019-03-11T01:38:15.469Z,4.50
2019-03-11T01:39:15.477Z,4.54
2019-03-11T01:40:15.458Z,4.47
2019-03-11T01:41:15.435Z,4.59
2019-03-11T01:42:15.426Z,4.59
2019-03-11T01:43:15.424Z,4.55
2019-03-11T01:44:15.420Z,4.60
2019-03-11T01:45:15.393Z,4.65
2019-03-11T01:46:15.384Z,4.67
2019-03-11T01:47:15.381Z,4.67
2019-03-11T01:48:15.368Z,4.67
2019-03-11T01:49:15.368Z,4.82
2019-03-11T01:50:15.346Z,4.69
2019-03-11T01:51:15.327Z,4.72
2019-03-11T01:52:15.316Z,4.80
2019-03-11T01:53:15.305Z,4.84
2019-03-11T01:54:15.324Z,4.70
2019-03-11T01:55:15.309Z,4.77
2019-03-11T01:56:15.285Z,4.84
2019-03-11T01:57:15.266Z,4.89
2019-03-11T01:58:15.250Z,4.86
2019-03-11T01:59:15.272Z,4.94
2019-03-11T02:00:15.252Z,4.96
2019-03-11T02:01:15.218Z,5.07
2019-03-11T02:02:15.214Z,5.02
2019-03-11T02:03:15.214Z,4.97
2019-03-11T02:04:15.215Z,5.00
2019-03-11T02:05:15.192Z,5.02
2019-03-11T02:06:15.168Z,5.07
2019-03-11T02:07:15.161Z,4.99
2019-03-11T02:08:15.143Z,5.07
2019-03-11T02:09:15.134Z,5.06
2019-03-11T02:10:15.142Z,5.02
2019-03-11T02:11:15.107Z,5.07
2019-03-11T02:12:15.097Z,5.06
2019-03-11T02:13:15.088Z,5.09
2019-03-11T02:14:15.084Z,5.02
2019-03-11T02:15:15.065Z,5.04
2019-03-11T02:16:15.070Z,4.99
2019-03-11T02:17:15.053Z,5.02
2019-03-11T02:18:15.030Z,5.04
2019-03-11T02:19:15.037Z,5.02
2019-03-11T02:20:15.040Z,5.04
2019-03-11T02:21:15.015Z,5.02
2019-03-11T02:22:14.993Z,5.07
2019-03-11T02:23:14.990Z,5.04
2019-03-11T02:24:14.966Z,5.04
2019-03-11T02:25:14.967Z,5.06
2019-03-11T02:26:14.963Z,5.09
2019-03-11T02:27:14.931Z,5.00
2019-03-11T02:28:14.924Z,5.02
2019-03-11T02:29:14.915Z,5.02
2019-03-11T02:30:14.905Z,5.03
2019-03-11T02:31:14.911Z,4.99
2019-03-11T02:32:14.882Z,5.04
2019-03-11T02:33:14.871Z,5.04
2019-03-11T02:34:14.861Z,5.00
2019-03-11T02:35:14.849Z,4.99
2019-03-11T02:36:14.870Z,5.09
2019-03-11T02:37:14.837Z,5.04
2019-03-11T02:38:14.824Z,5.03
2019-03-11T02:39:14.799Z,5.06
2019-03-11T02:40:14.803Z,5.02
2019-03-11T02:41:14.804Z,5.00
2019-03-11T02:42:14.769Z,5.03
2019-03-11T02:43:14.760Z,5.06
2019-03-11T02:44:14.753Z,5.15
2019-03-11T02:45:14.747Z,5.12
2019-03-11T02:46:14.753Z,5.13
2019-03-11T02:47:14.713Z,5.21
2019-03-11T02:48:14.703Z,5.17
2019-03-11T02:49:14.691Z,5.17
2019-03-11T02:50:14.682Z,5.22
2019-03-11T02:51:14.687Z,5.31
2019-03-11T02:52:14.667Z,5.27
2019-03-11T02:53:14.649Z,5.30
2019-03-11T02:54:14.643Z,5.33
2019-03-11T02:55:14.643Z,5.35
2019-03-11T02:56:14.635Z,5.35
2019-03-11T02:57:14.621Z,5.36
2019-03-11T02:58:14.604Z,5.36
2019-03-11T02:59:14.581Z,5.35
2019-03-11T03:00:14.570Z,5.31
2019-03-11T03:01:15.049Z,5.43
2019-03-11T03:02:14.550Z,5.42
2019-03-11T03:03:14.540Z,5.40
2019-03-11T03:04:14.536Z,5.48
2019-03-11T03:05:14.528Z,5.45
2019-03-11T03:06:14.504Z,5.49
2019-03-11T03:07:14.513Z,5.49
2019-03-11T03:08:14.483Z,5.49
2019-03-11T03:09:14.481Z,5.49
2019-03-11T03:10:14.464Z,5.45
2019-03-11T03:11:14.468Z,5.51
2019-03-11T03:12:14.472Z,5.51
2019-03-11T03:13:14.437Z,5.51
2019-03-11T03:14:14.423Z,5.51
2019-03-11T03:15:14.408Z,5.56
2019-03-11T03:16:14.406Z,5.54
2019-03-11T03:17:14.418Z,5.56
2019-03-11T03:18:14.371Z,5.58
2019-03-11T03:19:14.378Z,5.56
2019-03-11T03:20:14.355Z,5.53
2019-03-11T03:21:14.354Z,5.57
2019-03-11T03:22:14.357Z,5.57
2019-03-11T03:23:14.328Z,5.48
2019-03-11T03:24:14.308Z,5.58
2019-03-11T03:25:14.299Z,5.53
2019-03-11T03:26:14.286Z,5.46
2019-03-11T03:27:14.297Z,5.49
2019-03-11T03:28:14.289Z,5.53
2019-03-11T03:29:14.255Z,5.54
2019-03-11T03:30:14.283Z,5.56
2019-03-11T03:31:14.233Z,5.56
2019-03-11T03:32:14.238Z,5.60
2019-03-11T03:33:14.245Z,5.51
2019-03-11T03:34:14.203Z,5.54
2019-03-11T03:35:14.201Z,5.53
2019-03-11T03:36:14.182Z,5.63
2019-03-11T03:37:14.166Z,5.56
2019-03-11T03:38:28.811Z,5.48
2019-03-11T03:39:15.144Z,5.53
2019-03-11T03:40:14.142Z,5.53
2019-03-11T03:41:14.130Z,5.49
2019-03-11T03:42:14.117Z,5.56
2019-03-11T03:43:14.115Z,5.64
2019-03-11T03:44:14.090Z,5.60
2019-03-11T03:45:14.079Z,5.61
2019-03-11T03:46:19.122Z,5.63
2019-03-11T03:47:15.066Z,5.65
2019-03-11T03:48:14.124Z,5.61
2019-03-11T03:49:14.044Z,5.61
2019-03-11T03:50:14.040Z,5.53
2019-03-11T03:51:14.037Z,5.56
2019-03-11T03:52:14.005Z,5.58
2019-03-11T03:53:14.013Z,5.57
2019-03-11T03:54:13.985Z,5.51
2019-03-11T03:55:13.974Z,5.49
2019-03-11T03:56:13.962Z,5.43
2019-03-11T03:57:13.953Z,5.39
2019-03-11T03:58:13.966Z,5.33
2019-03-11T03:59:13.943Z,5.33
2019-03-11T04:00:13.934Z,5.36
2019-03-11T04:01:13.904Z,5.27
2019-03-11T04:02:13.896Z,5.17
2019-03-11T04:03:13.904Z,5.15
2019-03-11T04:04:13.902Z,5.04
2019-03-11T04:05:13.867Z,5.02
2019-03-11T04:06:13.859Z,5.04
2019-03-11T04:07:13.841Z,5.07
2019-03-11T04:08:13.868Z,5.12
2019-03-11T04:09:13.822Z,4.94
2019-03-11T04:10:13.806Z,5.04
2019-03-11T04:11:13.794Z,5.00
2019-03-11T04:12:13.792Z,4.91
2019-03-11T04:13:13.775Z,4.89
2019-03-11T04:14:13.784Z,5.00
2019-03-11T04:15:13.766Z,4.92
2019-03-11T04:16:13.742Z,4.91
2019-03-11T04:17:13.739Z,4.86
2019-03-11T04:18:13.733Z,4.92
2019-03-11T04:19:13.735Z,4.96
2019-03-11T04:20:13.698Z,5.00
2019-03-11T04:21:13.687Z,5.04
2019-03-11T04:22:13.682Z,5.00
2019-03-11T04:23:13.666Z,4.97
2019-03-11T04:24:13.684Z,5.03
2019-03-11T04:25:13.646Z,4.99
2019-03-11T04:26:13.635Z,5.00
2019-03-11T04:27:13.665Z,5.02
2019-03-11T04:28:13.615Z,4.99
2019-03-11T04:29:13.617Z,4.99
2019-03-11T04:30:13.618Z,4.99
2019-03-11T04:31:13.595Z,5.03
2019-03-11T04:32:13.566Z,5.00
2019-03-11T04:33:13.561Z,5.02
2019-03-11T04:34:13.549Z,5.00
2019-03-11T04:35:13.570Z,4.94
2019-03-11T04:36:13.536Z,4.86
2019-03-11T04:37:13.514Z,4.89
2019-03-11T04:38:13.500Z,4.84
2019-03-11T04:39:13.494Z,4.84
2019-03-11T04:40:13.493Z,4.72
2019-03-11T04:41:13.469Z,4.77
2019-03-11T04:42:13.463Z,4.84
2019-03-11T04:43:13.453Z,4.77
2019-03-11T04:44:13.443Z,4.69
2019-03-11T04:45:13.438Z,4.59
2019-03-11T04:46:13.413Z,4.66
2019-03-11T04:47:13.402Z,4.73
2019-03-11T04:48:13.413Z,4.67
2019-03-11T04:49:13.386Z,4.60
2019-03-11T04:50:13.399Z,4.67
2019-03-11T04:51:13.382Z,4.66
2019-03-11T04:52:13.358Z,4.63
2019-03-11T04:53:13.381Z,4.65
2019-03-11T04:54:13.341Z,4.63
2019-03-11T04:55:13.316Z,4.55
2019-03-11T04:56:13.326Z,4.55
2019-03-11T04:57:13.294Z,4.52
2019-03-11T04:58:13.282Z,4.58
2019-03-11T04:59:13.271Z,4.52
2019-03-11T05:00:13.265Z,4.54
2019-03-11T05:01:13.264Z,4.48
2019-03-11T05:02:13.237Z,4.55
2019-03-11T05:03:13.229Z,4.58
2019-03-11T05:04:13.216Z,4.47
2019-03-11T05:05:13.205Z,4.52
2019-03-11T05:06:13.216Z,4.45
2019-03-11T05:07:13.182Z,4.54
2019-03-11T05:08:13.177Z,4.54
2019-03-11T05:09:13.167Z,4.54
2019-03-11T05:10:15.959Z,4.41
2019-03-11T05:11:13.158Z,4.45
2019-03-11T05:12:13.137Z,4.40
2019-03-11T05:13:13.124Z,4.23
2019-03-11T05:14:13.106Z,4.12
2019-03-11T05:15:13.169Z,3.98
2019-03-11T05:16:13.099Z,3.87
2019-03-11T05:17:13.077Z,3.75
2019-03-11T05:18:13.066Z,3.66
2019-03-11T05:19:13.054Z,3.55
2019-03-11T05:20:13.045Z,3.47
2019-03-11T05:21:13.084Z,3.42
2019-03-11T05:22:13.038Z,3.40
2019-03-11T05:23:13.041Z,3.43
2019-03-11T05:24:13.000Z,3.29
2019-03-11T05:25:13.002Z,3.28
2019-03-11T05:26:12.985Z,3.31
2019-03-11T05:27:13.006Z,3.21
2019-03-11T05:28:12.960Z,3.29
2019-03-11T05:29:12.955Z,3.24
2019-03-11T05:30:12.946Z,3.28
2019-03-11T05:31:12.923Z,3.21
2019-03-11T05:32:12.925Z,3.06
2019-03-11T05:33:12.916Z,3.23
2019-03-11T05:34:12.890Z,3.18
2019-03-11T05:35:12.886Z,3.21
2019-03-11T05:36:12.882Z,3.18
2019-03-11T05:37:12.872Z,3.06
2019-03-11T05:38:12.856Z,3.11
2019-03-11T05:39:12.833Z,3.05
2019-03-11T05:40:12.823Z,3.11
2019-03-11T05:41:12.820Z,3.10
2019-03-11T05:42:12.826Z,3.11
2019-03-11T05:43:12.793Z,3.06
2019-03-11T05:44:12.786Z,3.13
2019-03-11T05:45:12.778Z,3.06
2019-03-11T05:46:12.765Z,3.13
2019-03-11T05:47:12.758Z,3.17
2019-03-11T05:48:12.750Z,3.15
2019-03-11T05:49:12.731Z,3.17
2019-03-11T05:50:12.716Z,3.08
2019-03-11T05:51:12.704Z,3.08
2019-03-11T05:52:12.702Z,3.21
2019-03-11T05:53:12.726Z,3.13
2019-03-11T05:54:12.683Z,3.08
2019-03-11T05:55:12.668Z,3.23
2019-03-11T05:56:12.647Z,3.18
2019-03-11T05:57:12.645Z,3.20
2019-03-11T05:58:12.648Z,3.24
2019-03-11T05:59:12.619Z,3.18
2019-03-11T06:00:12.602Z,3.23
2019-03-11T06:01:12.596Z,3.21
2019-03-11T06:02:12.578Z,3.26
2019-03-11T06:03:12.599Z,3.21
2019-03-11T06:04:12.564Z,3.26
2019-03-11T06:05:12.561Z,3.21
2019-03-11T06:06:12.548Z,3.15
2019-03-11T06:07:12.531Z,3.03
2019-03-11T06:08:12.545Z,3.18
2019-03-11T06:09:12.509Z,3.05
2019-03-11T06:10:12.497Z,3.10
2019-03-11T06:11:12.480Z,3.06
2019-03-11T06:12:12.470Z,3.10
2019-03-11T06:13:12.480Z,3.00
2019-03-11T06:14:12.460Z,2.97
2019-03-11T06:15:12.437Z,3.03
2019-03-11T06:16:12.430Z,3.02
2019-03-11T06:17:12.416Z,3.02
2019-03-11T06:18:12.412Z,2.96
2019-03-11T06:19:12.412Z,3.03
2019-03-11T06:20:12.386Z,2.97
2019-03-11T06:21:12.376Z,2.96
2019-03-11T06:22:12.373Z,2.97
2019-03-11T06:23:12.377Z,3.06
2019-03-11T06:24:12.340Z,3.06
2019-03-11T06:25:12.329Z,3.08
2019-03-11T06:26:12.329Z,3.17
2019-03-11T06:27:12.308Z,3.17
2019-03-11T06:28:12.292Z,3.14
2019-03-11T06:29:12.312Z,3.08
2019-03-11T06:30:12.278Z,3.08
2019-03-11T06:31:12.271Z,3.23
2019-03-11T06:32:12.267Z,3.23
2019-03-11T06:33:12.245Z,3.18
2019-03-11T06:34:12.253Z,3.23
2019-03-11T06:35:12.218Z,3.24
2019-03-11T06:36:12.208Z,3.40
2019-03-11T06:37:12.205Z,3.83
2019-03-11T06:38:12.188Z,4.08
2019-03-11T06:39:12.207Z,3.98
2019-03-11T06:40:12.198Z,3.94
2019-03-11T06:41:12.171Z,3.83
2019-03-11T06:42:12.150Z,3.76
2019-03-11T06:43:12.134Z,3.76
2019-03-11T06:44:12.146Z,3.61
2019-03-11T06:45:12.154Z,3.76
2019-03-11T06:46:12.103Z,3.78
2019-03-11T06:47:12.093Z,4.00
2019-03-11T06:48:12.075Z,3.93
2019-03-11T06:49:12.124Z,4.15
2019-03-11T06:50:12.062Z,4.32
2019-03-11T06:51:12.043Z,4.45
2019-03-11T06:52:12.036Z,4.48
2019-03-11T06:53:12.233Z,4.55
2019-03-11T06:54:12.045Z,4.63
2019-03-11T06:55:12.044Z,4.63
2019-03-11T06:56:11.998Z,4.80
2019-03-11T06:57:12.838Z,4.85
2019-03-11T06:58:11.972Z,4.78
2019-03-11T06:59:11.966Z,4.96
2019-03-11T07:00:11.993Z,4.91
2019-03-11T07:01:11.943Z,4.97
2019-03-11T07:02:11.922Z,4.99
2019-03-11T07:03:11.914Z,5.10
2019-03-11T07:04:11.903Z,5.22
2019-03-11T07:05:20.010Z,5.27
2019-03-11T07:06:12.882Z,5.38
2019-03-11T07:07:11.877Z,5.39
2019-03-11T07:08:11.858Z,5.40
2019-03-11T07:09:11.858Z,5.42
2019-03-11T07:10:11.861Z,5.49
2019-03-11T07:11:11.848Z,5.53
2019-03-11T07:12:11.811Z,5.65
2019-03-11T07:13:11.803Z,5.81
2019-03-11T07:14:11.792Z,5.91
2019-03-11T07:15:11.800Z,5.91
2019-03-11T07:16:11.786Z,6.03
2019-03-11T07:17:11.767Z,6.01
2019-03-11T07:18:11.756Z,6.04
2019-03-11T07:19:11.736Z,6.21
2019-03-11T07:20:11.725Z,6.21
2019-03-11T07:21:11.756Z,6.04
2019-03-11T07:22:11.704Z,5.93
2019-03-11T07:23:11.699Z,5.99
2019-03-11T07:24:11.683Z,5.94
2019-03-11T07:25:11.673Z,5.76
2019-03-11T07:26:11.681Z,5.67
2019-03-11T07:27:11.659Z,5.65
2019-03-11T07:28:11.640Z,5.54
2019-03-11T07:29:11.628Z,5.38
2019-03-11T07:30:11.620Z,5.48
2019-03-11T07:31:11.622Z,5.45
2019-03-11T07:32:11.599Z,5.53
2019-03-11T07:33:11.596Z,5.61
2019-03-11T07:34:11.574Z,5.63
2019-03-11T07:35:11.569Z,5.76
2019-03-11T07:36:11.573Z,5.86
2019-03-11T07:37:11.736Z,5.93
2019-03-11T07:38:11.539Z,5.89
2019-03-11T07:39:11.526Z,5.91
2019-03-11T07:40:11.555Z,6.00
2019-03-11T07:41:11.515Z,6.06
2019-03-11T07:42:11.486Z,6.12
2019-03-11T07:43:11.474Z,6.14
2019-03-11T07:44:11.468Z,6.21
2019-03-11T07:45:11.454Z,6.30
2019-03-11T07:46:11.465Z,6.38
2019-03-11T07:47:11.439Z,6.38
2019-03-11T07:48:11.434Z,6.55
2019-03-11T07:49:11.407Z,6.61
2019-03-11T07:50:11.409Z,6.84
2019-03-11T07:51:11.406Z,6.81
2019-03-11T07:52:11.399Z,6.76
2019-03-11T07:53:11.396Z,6.81
2019-03-11T07:54:11.360Z,6.80
2019-03-11T07:55:11.351Z,6.97
2019-03-11T07:56:11.336Z,6.99
2019-03-11T07:57:11.371Z,7.09
2019-03-11T07:58:11.311Z,7.16
2019-03-11T07:59:11.300Z,7.25
2019-03-11T08:00:11.292Z,7.35
2019-03-11T08:01:11.280Z,7.42
2019-03-11T08:02:11.298Z,7.61
2019-03-11T08:03:11.270Z,7.64
2019-03-11T08:04:11.247Z,7.75
2019-03-11T08:05:11.233Z,7.83
2019-03-11T08:06:18.481Z,7.72
2019-03-11T08:07:12.236Z,7.72
2019-03-11T08:08:11.294Z,7.72
2019-03-11T08:09:11.212Z,7.68
2019-03-11T08:10:11.179Z,7.74
2019-03-11T08:11:11.168Z,7.74
2019-03-11T08:12:11.157Z,7.71
2019-03-11T08:13:11.163Z,7.67
2019-03-11T08:14:11.135Z,7.61
2019-03-11T08:15:11.122Z,7.52
2019-03-11T08:16:11.116Z,7.45
2019-03-11T08:17:11.141Z,7.39
2019-03-11T08:18:11.107Z,7.34
2019-03-11T08:19:11.110Z,7.16
2019-03-11T08:20:11.070Z,7.17
2019-03-11T08:21:11.062Z,7.06
2019-03-11T08:22:11.051Z,7.02
2019-03-11T08:23:11.041Z,7.02
2019-03-11T08:24:11.050Z,6.95
2019-03-11T08:25:11.015Z,6.87
2019-03-11T08:26:11.008Z,6.84
2019-03-11T08:27:10.993Z,6.85
2019-03-11T08:28:11.021Z,6.84
2019-03-11T08:29:10.971Z,6.76
2019-03-11T08:30:10.960Z,6.81
2019-03-11T08:31:10.958Z,6.80
2019-03-11T08:32:10.939Z,6.87
2019-03-11T08:33:10.928Z,6.85
2019-03-11T08:34:10.944Z,6.87
2019-03-11T08:35:10.907Z,6.92
2019-03-11T08:36:10.902Z,6.85
2019-03-11T08:37:10.881Z,6.81
2019-03-11T08:38:10.877Z,6.77
2019-03-11T08:39:10.909Z,6.87
2019-03-11T08:40:10.851Z,6.85
2019-03-11T08:41:10.838Z,6.77
2019-03-11T08:42:10.832Z,6.74
2019-03-11T08:43:10.839Z,6.80
2019-03-11T08:44:10.827Z,6.88
2019-03-11T08:45:10.807Z,6.80
2019-03-11T08:46:10.784Z,6.85
2019-03-11T08:47:10.774Z,6.84
2019-03-11T08:48:10.765Z,6.87
2019-03-11T08:49:10.768Z,6.98
2019-03-11T08:50:10.897Z,6.88
2019-03-11T08:51:10.727Z,6.97
2019-03-11T08:52:10.718Z,7.06
2019-03-11T08:53:10.706Z,7.06
2019-03-11T08:54:10.711Z,7.06
2019-03-11T08:55:10.700Z,7.07
2019-03-11T08:56:10.679Z,7.02
2019-03-11T08:57:10.686Z,6.92
2019-03-11T08:58:10.657Z,7.03
2019-03-11T08:59:10.642Z,7.03
2019-03-11T09:00:10.645Z,6.94
2019-03-11T09:01:10.618Z,7.02
2019-03-11T09:02:10.614Z,6.95
2019-03-11T09:03:10.607Z,7.10
2019-03-11T09:04:10.591Z,7.02
2019-03-11T09:05:10.596Z,7.06
2019-03-11T09:06:10.563Z,7.03
2019-03-11T09:07:10.553Z,7.06
2019-03-11T09:08:10.544Z,6.97
2019-03-11T09:09:10.544Z,7.03
2019-03-11T09:10:10.535Z,7.02
2019-03-11T09:11:10.519Z,6.94
2019-03-11T09:12:10.498Z,6.95
2019-03-11T09:13:10.491Z,6.84
2019-03-11T09:14:10.483Z,6.94
2019-03-11T09:15:10.496Z,6.80
2019-03-11T09:16:10.460Z,6.89
2019-03-11T09:17:10.457Z,6.84
2019-03-11T09:18:10.432Z,6.77
2019-03-11T09:19:10.432Z,6.73
2019-03-11T09:20:10.411Z,6.69
2019-03-11T09:21:10.438Z,6.71
2019-03-11T09:22:10.389Z,6.62
2019-03-11T09:23:10.420Z,6.58
2019-03-11T09:24:18.722Z,6.61
2019-03-11T09:25:11.389Z,6.70
2019-03-11T09:26:10.367Z,6.70
2019-03-11T09:27:10.369Z,6.67
2019-03-11T09:28:10.327Z,6.73
2019-03-11T09:29:10.327Z,6.71
2019-03-11T09:30:10.302Z,6.70
2019-03-11T09:31:10.325Z,6.79
2019-03-11T09:32:10.289Z,6.77
2019-03-11T09:33:10.274Z,6.73
2019-03-11T09:34:10.262Z,6.79
2019-03-11T09:35:10.290Z,6.77
2019-03-11T09:36:10.265Z,6.69
2019-03-11T09:37:10.230Z,6.64
2019-03-11T09:38:10.224Z,6.64
2019-03-11T09:39:10.208Z,6.71
2019-03-11T09:40:10.196Z,6.61
2019-03-11T09:41:10.206Z,6.54
2019-03-11T09:42:10.175Z,6.40
2019-03-11T09:43:10.174Z,6.40
2019-03-11T09:44:10.147Z,6.34
2019-03-11T09:45:10.139Z,6.21
2019-03-11T09:46:10.147Z,6.28
2019-03-11T09:47:10.117Z,6.34
2019-03-11T09:48:10.113Z,6.33
2019-03-11T09:49:10.099Z,6.40
2019-03-11T09:50:10.098Z,6.56
2019-03-11T09:51:10.117Z,6.67
2019-03-11T09:52:10.091Z,6.77
2019-03-11T09:53:10.053Z,7.05
2019-03-11T09:54:10.041Z,7.13
2019-03-11T09:55:10.041Z,7.21
2019-03-11T09:56:10.039Z,7.31
2019-03-11T09:57:10.027Z,7.43
2019-03-11T09:58:10.009Z,7.48
2019-03-11T09:59:09.990Z,7.43
2019-03-11T10:00:09.976Z,7.63
2019-03-11T10:01:09.967Z,7.71
2019-03-11T10:02:12.269Z,7.86
2019-03-11T10:03:09.941Z,7.89
2019-03-11T10:04:09.932Z,8.08
2019-03-11T10:05:09.926Z,8.01
2019-03-11T10:06:09.930Z,8.02
2019-03-11T10:07:09.917Z,8.15
2019-03-11T10:08:10.973Z,8.05
2019-03-11T10:09:09.877Z,8.00
2019-03-11T10:10:09.882Z,7.93
2019-03-11T10:11:09.855Z,7.98
2019-03-11T10:12:09.857Z,7.97
2019-03-11T10:13:09.838Z,7.95
2019-03-11T10:14:09.822Z,7.97
2019-03-11T10:15:09.923Z,7.86
2019-03-11T10:16:09.802Z,7.85
2019-03-11T10:17:09.810Z,7.85
2019-03-11T10:18:09.783Z,7.79
2019-03-11T10:19:09.774Z,7.77
2019-03-11T10:20:09.760Z,7.74
2019-03-11T10:21:09.740Z,7.77
2019-03-11T10:22:09.744Z,7.71
2019-03-11T10:23:09.744Z,7.80
2019-03-11T10:24:09.713Z,7.82
2019-03-11T10:25:09.703Z,7.75
2019-03-11T10:26:09.693Z,7.72
2019-03-11T10:27:09.675Z,7.77
2019-03-11T10:28:09.678Z,7.74
2019-03-11T10:29:09.670Z,7.71
2019-03-11T10:30:09.644Z,7.68
2019-03-11T10:31:09.637Z,7.75
2019-03-11T10:32:09.619Z,7.71
2019-03-11T10:33:09.651Z,7.75
2019-03-11T10:34:09.624Z,7.64
2019-03-11T10:35:30.195Z,7.50
2019-03-11T10:36:10.581Z,7.52
2019-03-11T10:37:09.563Z,7.48
2019-03-11T10:38:09.578Z,7.49
2019-03-11T10:39:09.572Z,7.40
2019-03-11T10:40:09.547Z,7.39
2019-03-11T10:41:09.520Z,7.52
2019-03-11T10:42:09.513Z,7.45
2019-03-11T10:43:09.521Z,7.37
2019-03-11T10:44:09.491Z,7.24
2019-03-11T10:45:09.505Z,7.24
2019-03-11T10:46:09.479Z,7.39
2019-03-11T10:47:09.463Z,7.42
2019-03-11T10:48:09.463Z,7.72
2019-03-11T10:49:09.434Z,7.86
2019-03-11T10:50:09.419Z,8.01
2019-03-11T10:51:09.413Z,8.12
2019-03-11T10:52:09.495Z,8.12
2019-03-11T10:53:09.404Z,8.18
2019-03-11T10:54:09.382Z,8.28
2019-03-11T10:55:09.370Z,8.20
2019-03-11T10:56:09.357Z,8.23
2019-03-11T10:57:09.350Z,8.25
2019-03-11T10:58:09.352Z,8.15
2019-03-11T10:59:09.320Z,8.01
2019-03-11T11:00:09.309Z,8.02
2019-03-11T11:01:09.941Z,7.92
2019-03-11T11:02:09.287Z,7.86
2019-03-11T11:03:09.305Z,7.77
2019-03-11T11:04:09.270Z,7.77
2019-03-11T11:05:09.252Z,7.67
2019-03-11T11:06:09.246Z,7.72
2019-03-11T11:07:09.236Z,7.67
2019-03-11T11:08:09.224Z,7.63
2019-03-11T11:09:09.256Z,7.68
2019-03-11T11:10:09.205Z,7.67
2019-03-11T11:11:09.194Z,7.75
2019-03-11T11:12:09.187Z,7.95
2019-03-11T11:13:09.175Z,8.00
2019-03-11T11:14:09.187Z,8.01
2019-03-11T11:15:09.182Z,8.10
2019-03-11T11:16:09.237Z,8.20
2019-03-11T11:17:09.128Z,8.33
2019-03-11T11:18:09.121Z,8.26
2019-03-11T11:19:09.118Z,8.33
2019-03-11T11:20:09.095Z,8.28
2019-03-11T11:21:09.081Z,8.29
2019-03-11T11:22:09.067Z,8.23
2019-03-11T11:23:09.063Z,8.18
2019-03-11T11:24:09.063Z,8.15
2019-03-11T11:25:09.033Z,8.10
2019-03-11T11:26:09.024Z,8.10
2019-03-11T11:27:09.019Z,8.10
2019-03-11T11:28:09.002Z,8.12
2019-03-11T11:29:09.010Z,8.36
2019-03-11T11:30:08.981Z,8.58
2019-03-11T11:31:08.986Z,8.70
2019-03-11T11:32:08.965Z,8.81
2019-03-11T11:33:08.945Z,9.04
2019-03-11T11:34:08.944Z,9.33
2019-03-11T11:35:08.952Z,9.50
2019-03-11T11:36:08.918Z,9.75
2019-03-11T11:37:08.905Z,9.99
2019-03-11T11:38:08.893Z,10.25
2019-03-11T11:39:08.882Z,10.34
2019-03-11T11:40:08.899Z,10.26
2019-03-11T11:41:08.865Z,10.34
2019-03-11T11:42:08.847Z,10.33
2019-03-11T11:43:08.849Z,10.32
2019-03-11T11:44:08.863Z,10.32
2019-03-11T11:45:08.845Z,10.38
2019-03-11T11:46:08.821Z,10.40
2019-03-11T11:47:08.795Z,10.29
2019-03-11T11:48:08.804Z,10.25
2019-03-11T11:49:08.779Z,10.18
2019-03-11T11:50:08.782Z,10.15
2019-03-11T11:51:08.779Z,10.05
2019-03-11T11:52:08.733Z,9.89
2019-03-11T11:53:08.731Z,9.78
2019-03-11T11:54:08.722Z,9.72
2019-03-11T11:55:08.719Z,9.65
2019-03-11T11:56:08.728Z,9.66
2019-03-11T11:57:08.700Z,9.54
2019-03-11T11:58:08.674Z,9.57
2019-03-11T11:59:08.663Z,9.42
2019-03-11T12:00:08.676Z,9.24
2019-03-11T12:01:08.713Z,9.13
2019-03-11T12:02:08.641Z,9.04
2019-03-11T12:03:08.625Z,8.98
2019-03-11T12:04:08.613Z,8.87
2019-03-11T12:05:08.604Z,8.95
2019-03-11T12:06:08.607Z,8.87
2019-03-11T12:07:08.572Z,8.81
2019-03-11T12:08:08.565Z,8.73
2019-03-11T12:09:08.573Z,8.70
2019-03-11T12:10:08.552Z,8.66
2019-03-11T12:11:08.551Z,8.61
2019-03-11T12:12:08.521Z,8.61
2019-03-11T12:13:08.514Z,8.56
2019-03-11T12:14:08.511Z,8.55
2019-03-11T12:15:08.486Z,8.56
2019-03-11T12:16:08.503Z,8.48
2019-03-11T12:17:08.589Z,8.45
2019-03-11T12:18:08.454Z,8.50
2019-03-11T12:19:08.448Z,8.38
2019-03-11T12:20:08.434Z,8.34
2019-03-11T12:21:08.455Z,8.22
2019-03-11T12:22:08.471Z,8.25
2019-03-11T12:23:08.403Z,8.22
2019-03-11T12:24:08.397Z,8.22
2019-03-11T12:25:08.382Z,8.18
2019-03-11T12:26:08.382Z,8.15
2019-03-11T12:27:08.353Z,8.15
2019-03-11T12:28:08.366Z,8.11
2019-03-11T12:29:08.362Z,8.10
2019-03-11T12:30:08.328Z,8.07
2019-03-11T12:31:08.334Z,8.11
2019-03-11T12:32:08.323Z,8.10
2019-03-11T12:33:08.287Z,8.15
2019-03-11T12:34:08.284Z,8.15
2019-03-11T12:35:08.264Z,8.15
2019-03-11T12:36:08.255Z,8.26
2019-03-11T12:37:08.275Z,8.22
2019-03-11T12:38:08.238Z,8.20
2019-03-11T12:39:08.230Z,8.20
2019-03-11T12:40:08.214Z,8.10
2019-03-11T12:41:08.222Z,8.19
2019-03-11T12:42:08.206Z,8.23
2019-03-11T12:43:08.178Z,8.12
2019-03-11T12:44:08.168Z,8.23
2019-03-11T12:45:08.171Z,8.18
2019-03-11T12:46:08.248Z,8.25
2019-03-11T12:47:08.200Z,8.22
2019-03-11T12:48:08.216Z,8.25
2019-03-11T12:49:08.118Z,8.20
2019-03-11T12:50:08.107Z,8.22
2019-03-11T12:51:08.180Z,8.15
2019-03-11T12:52:08.105Z,8.15
2019-03-11T12:53:08.089Z,8.16
2019-03-11T12:54:08.065Z,8.22
2019-03-11T12:55:08.058Z,8.15
2019-03-11T12:56:08.039Z,8.15
2019-03-11T12:57:08.045Z,8.10
2019-03-11T12:58:08.022Z,8.16
2019-03-11T12:59:08.011Z,8.05
2019-03-11T13:00:07.997Z,8.00
2019-03-11T13:01:07.987Z,8.08
2019-03-11T13:02:07.981Z,8.07
2019-03-11T13:03:07.989Z,8.10
2019-03-11T13:04:07.954Z,7.98
2019-03-11T13:05:07.945Z,8.05
2019-03-11T13:06:07.931Z,8.08
2019-03-11T13:07:07.918Z,8.04
2019-03-11T13:08:07.925Z,7.98
2019-03-11T13:09:07.900Z,8.01
2019-03-11T13:10:07.887Z,8.02
2019-03-11T13:11:07.871Z,7.93
2019-03-11T13:12:07.885Z,8.05
2019-03-11T13:13:07.882Z,8.05
2019-03-11T13:14:07.840Z,8.02
2019-03-11T13:15:07.869Z,8.05
2019-03-11T13:16:07.830Z,7.98
2019-03-11T13:17:07.814Z,7.93
2019-03-11T13:18:07.814Z,7.98